Time;durP1;ratioP1;P1;durP2;ratioP2;P2;SDS_P1;SDS_P2;PMS_P1;PMS_P2;Temp;Humidity;BMP_temperature;BMP_pressure;BME280_temperature;BME280_humidity;BME280_pressure;Samples;Min_cycle;Max_cycle;Signal;HPM_P1;HPM_P2
2021/06/18 00:01:25;;;;;;;11.43;8.50;;;;;;;22.72;66.06;101213.34;5254197;28;20036;-67
2021/06/18 00:03:57;;;;;;;10.37;7.77;;;;;;;22.69;66.11;101216.44;5257355;28;20111;-67
2021/06/18 00:06:28;;;;;;;10.25;7.88;;;;;;;22.66;66.41;101211.50;5256523;28;20479;-67
2021/06/18 00:08:59;;;;;;;9.63;7.87;;;;;;;22.66;66.51;101203.50;5256278;28;20024;-67
2021/06/18 00:11:30;;;;;;;9.77;8.77;;;;;;;22.64;66.23;101209.03;5256459;28;20028;-68
2021/06/18 00:14:04;;;;;;;10.40;7.83;;;;;;;22.64;66.33;101217.03;5253925;28;20024;-67
2021/06/18 00:16:35;;;;;;;11.32;8.60;;;;;;;22.66;66.46;101216.84;5256130;28;20029;-68
2021/06/18 00:19:07;;;;;;;10.10;7.70;;;;;;;22.64;66.04;101206.34;5257567;28;20036;-66
2021/06/18 00:21:38;;;;;;;9.60;7.73;;;;;;;22.67;66.17;101208.63;5255595;28;20115;-67
2021/06/18 00:24:09;;;;;;;9.93;8.23;;;;;;;22.51;67.10;101203.66;5257282;28;20025;-68
2021/06/18 00:26:41;;;;;;;10.60;8.03;;;;;;;22.59;66.41;101200.81;5257272;28;20036;-67
2021/06/18 00:29:12;;;;;;;10.23;7.93;;;;;;;22.62;66.84;101194.25;5255440;28;20094;-66
2021/06/18 00:31:43;;;;;;;10.87;8.57;;;;;;;22.59;66.55;101193.59;5252704;28;20115;-67
2021/06/18 00:34:14;;;;;;;9.93;8.57;;;;;;;22.53;67.11;101193.56;5256066;28;20426;-66
2021/06/18 00:36:46;;;;;;;10.50;8.13;;;;;;;22.48;67.68;101193.38;5255933;28;20036;-68
2021/06/18 00:39:17;;;;;;;11.77;8.30;;;;;;;22.50;67.26;101194.81;5255854;28;20029;-66
2021/06/18 00:41:48;;;;;;;10.23;8.43;;;;;;;22.46;67.86;101174.84;5253749;28;20445;-67
2021/06/18 00:44:20;;;;;;;13.20;9.13;;;;;;;22.50;67.40;101176.13;5255202;28;20033;-68
2021/06/18 00:46:51;;;;;;;9.43;8.07;;;;;;;22.49;67.69;101174.47;5256191;28;20421;-67
2021/06/18 00:49:24;;;;;;;10.63;8.57;;;;;;;22.43;67.96;101166.47;5255985;28;20395;-67
2021/06/18 00:51:57;;;;;;;10.93;8.32;;;;;;;22.38;68.21;101164.34;5255688;28;20028;-67
2021/06/18 00:54:28;;;;;;;10.68;8.63;;;;;;;22.41;68.17;101160.47;5254779;28;20043;-68
2021/06/18 00:57:01;;;;;;;10.17;9.17;;;;;;;22.40;67.95;101164.19;5256032;28;20017;-68
2021/06/18 00:59:32;;;;;;;9.48;8.30;;;;;;;22.42;68.14;101164.78;5255422;28;20478;-68
2021/06/18 01:02:04;;;;;;;9.30;8.33;;;;;;;22.42;68.04;101162.94;5256988;28;20028;-67
2021/06/18 01:04:37;;;;;;;9.73;8.73;;;;;;;22.42;68.26;101160.25;5254440;28;20491;-67
2021/06/18 01:07:25;;;;;;;9.80;8.20;;;;;;;22.47;67.75;101171.19;5255719;28;20505;-67
2021/06/18 01:10:08;;;;;;;9.90;8.93;;;;;;;22.43;67.85;101180.63;5256647;28;20492;-68
2021/06/18 01:12:51;;;;;;;12.27;8.93;;;;;;;22.38;68.23;101176.88;5254037;28;20462;-67
2021/06/18 01:15:44;;;;;;;10.35;8.98;;;;;;;22.46;67.98;101180.19;5253164;28;20036;-67
2021/06/18 01:18:18;;;;;;;;;;;;;;;22.69;65.95;101185.22;5256218;28;20389;-67
2021/06/18 01:21:01;;;;;;;9.50;8.60;;;;;;;22.46;68.22;101193.53;5254625;28;19994;-68
2021/06/18 01:23:38;;;;;;;9.77;8.75;;;;;;;22.49;67.84;101195.81;5253225;28;20033;-67
2021/06/18 01:26:24;;;;;;;9.90;8.90;;;;;;;22.49;67.48;101206.50;5255502;28;20037;-67
2021/06/18 01:28:57;;;;;;;10.73;9.32;;;;;;;22.42;68.77;101202.16;5255647;28;20025;-67
2021/06/18 01:31:36;;;;;;;10.93;9.07;;;;;;;22.42;69.06;101205.66;5255168;28;20029;-66
2021/06/18 01:34:30;;;;;;;12.55;9.13;;;;;;;22.59;67.87;101193.59;5253905;28;20104;-67
2021/06/18 01:37:10;;;;;;;12.35;10.27;;;;;;;22.45;68.94;101194.56;5255619;28;20017;-67
2021/06/18 01:39:44;;;;;;;11.75;9.70;;;;;;;22.33;69.59;101197.00;5254837;28;20040;-67
2021/06/18 01:42:17;;;;;;;10.70;9.40;;;;;;;22.35;69.37;101194.16;5253750;28;20029;-67
2021/06/18 01:44:50;;;;;;;11.10;9.25;;;;;;;22.32;69.69;101194.53;5254775;28;20029;-68
2021/06/18 01:47:23;;;;;;;11.98;9.60;;;;;;;22.30;69.68;101186.72;5253561;28;20040;-67
2021/06/18 01:49:57;;;;;;;11.50;9.95;;;;;;;22.26;69.93;101189.97;5251854;28;20068;-66
2021/06/18 01:52:30;;;;;;;10.85;9.68;;;;;;;22.20;69.91;101182.75;5254688;28;20031;-67
2021/06/18 01:55:04;;;;;;;17.95;9.98;;;;;;;22.19;69.93;101176.59;5245445;28;20075;-66
2021/06/18 01:57:37;;;;;;;10.95;9.70;;;;;;;22.23;69.66;101167.19;5237845;28;20033;-67
2021/06/18 02:00:09;;;;;;;11.93;9.98;;;;;;;22.19;69.66;101151.75;5250845;28;20025;-66
2021/06/18 02:02:44;;;;;;;12.67;10.47;;;;;;;22.19;69.74;101157.09;5247623;28;20099;-67
2021/06/18 02:05:17;;;;;;;12.40;10.52;;;;;;;22.10;70.12;101157.25;5250118;28;20086;-67
2021/06/18 02:07:51;;;;;;;11.52;10.32;;;;;;;22.16;70.18;101161.00;5254037;28;20494;-67
2021/06/18 02:10:23;;;;;;;11.95;10.02;;;;;;;22.08;70.15;101155.78;5252864;28;20036;-67
2021/06/18 02:12:56;;;;;;;11.40;10.18;;;;;;;22.06;70.39;101153.31;5253085;28;20063;-67
2021/06/18 02:15:28;;;;;;;11.45;10.32;;;;;;;22.10;70.14;101167.09;5253224;28;20039;-66
2021/06/18 02:18:00;;;;;;;;;;;;;;;22.36;67.93;101184.28;5255492;28;20029;-68
2021/06/18 02:20:33;;;;;;;11.00;9.88;;;;;;;22.14;70.21;101220.94;5252126;28;19963;-67
2021/06/18 02:23:08;;;;;;;12.40;11.20;;;;;;;22.09;70.62;101251.66;5254251;28;20035;-66
2021/06/18 02:25:40;;;;;;;13.68;11.52;;;;;;;21.95;71.38;101247.25;5251818;28;20086;-67
2021/06/18 02:28:13;;;;;;;13.00;11.45;;;;;;;21.94;71.54;101250.13;5254345;28;20409;-67
2021/06/18 02:30:44;;;;;;;;;;;;;;;22.17;69.78;101228.56;5253179;28;20525;-67
2021/06/18 02:33:15;;;;;;;13.73;11.60;;;;;;;21.88;71.85;101197.56;5253878;28;19916;-66
2021/06/18 02:35:47;;;;;;;13.17;11.77;;;;;;;21.91;71.61;101167.81;5254653;28;20025;-67
2021/06/18 02:38:19;;;;;;;13.77;12.27;;;;;;;21.90;71.19;101156.34;5255010;28;20028;-66
2021/06/18 02:40:50;;;;;;;14.07;12.27;;;;;;;21.89;70.77;101160.00;5251614;28;20469;-68
2021/06/18 02:43:22;;;;;;;14.40;12.10;;;;;;;21.90;70.70;101174.19;5253790;28;20063;-67
2021/06/18 02:45:53;;;;;;;13.47;12.07;;;;;;;21.88;71.05;101182.38;5252864;28;20080;-66
2021/06/18 02:48:29;;;;;;;13.63;11.80;;;;;;;21.88;71.71;101190.38;5248780;28;20338;-67
2021/06/18 02:51:16;;;;;;;13.27;11.93;;;;;;;21.93;71.14;101181.78;5254486;28;20066;-66
2021/06/18 02:54:13;;;;;;;14.63;12.63;;;;;;;21.88;71.52;101155.69;5253150;28;20049;-67
2021/06/18 02:56:48;;;;;;;13.73;12.35;;;;;;;21.80;72.06;101139.84;5250791;28;20102;-68
2021/06/18 02:59:26;;;;;;;14.60;13.20;;;;;;;21.75;72.48;101127.13;5253112;28;20025;-68
2021/06/18 03:02:00;;;;;;;13.52;12.23;;;;;;;21.77;72.29;101119.72;5254423;28;20515;-67
2021/06/18 03:04:36;;;;;;;13.23;12.10;;;;;;;21.77;72.53;101154.41;5252270;28;20055;-67
2021/06/18 03:07:10;;;;;;;15.05;13.25;;;;;;;21.74;72.94;101296.13;5251795;28;20048;-66
2021/06/18 03:09:47;;;;;;;16.40;14.57;;;;;;;21.69;73.90;101340.41;5245488;28;20534;-67
2021/06/18 03:12:23;;;;;;;15.60;13.82;;;;;;;21.62;75.06;101348.34;5252654;28;20039;-67
2021/06/18 03:15:07;;;;;;;28.67;14.73;;;;;;;21.26;85.49;101343.03;5253905;28;20049;-65
2021/06/18 03:17:42;;;;;;;14.75;8.02;;;;;;;20.90;85.12;101184.84;5252958;28;20028;-66
2021/06/18 03:20:19;;;;;;;12.75;5.70;;;;;;;20.64;86.13;101241.28;5240848;28;20057;-65
2021/06/18 03:22:56;;;;;;;5.60;1.98;;;;;;;20.60;85.23;101234.69;5247653;28;20667;-65
2021/06/18 03:25:32;;;;;;;6.32;1.63;;;;;;;20.37;89.13;101242.75;5248566;28;20033;-65
2021/06/18 03:28:04;;;;;;;5.60;1.83;;;;;;;20.45;89.35;101219.72;5245017;28;20025;-65
2021/06/18 03:30:36;;;;;;;3.42;1.17;;;;;;;20.36;87.91;101201.19;5250558;28;20144;-65
2021/06/18 03:33:09;;;;;;;3.60;1.25;;;;;;;20.32;85.36;101197.25;5243288;28;20029;-66
2021/06/18 03:35:41;;;;;;;5.75;1.60;;;;;;;20.34;91.88;101215.69;5244078;28;20025;-66
2021/06/18 03:38:15;;;;;;;5.10;1.17;;;;;;;20.34;91.63;101296.38;5256629;28;20037;-66
2021/06/18 03:40:47;;;;;;;3.47;1.45;;;;;;;20.26;92.15;101376.25;5245583;28;20021;-66
2021/06/18 03:43:19;;;;;;;7.20;3.17;;;;;;;20.15;92.50;101430.75;5251715;28;20021;-65
2021/06/18 03:46:01;;;;;;;20.27;6.72;;;;;;;20.07;96.25;101441.44;5247332;28;20026;-65
2021/06/18 03:48:35;;;;;;;38.55;9.95;;;;;;;19.93;96.46;101363.25;5251044;28;20482;-65
2021/06/18 03:51:07;;;;;;;9.95;5.50;;;;;;;19.88;96.94;101359.47;5257382;28;20470;-64
2021/06/18 03:53:38;;;;;;;10.63;5.33;;;;;;;19.80;94.84;101301.03;5257385;28;20110;-65
2021/06/18 03:56:11;;;;;;;14.23;6.27;;;;;;;19.84;97.36;101271.25;5257424;28;20501;-65
2021/06/18 03:58:44;;;;;;;;;;;;;;;20.09;92.80;101239.13;5253036;28;20030;-64
2021/06/18 04:01:16;;;;;;;;;;;;;;;20.09;90.89;101242.59;5247407;28;19971;-66
2021/06/18 04:03:49;;;;;;;7.95;4.88;;;;;;;19.81;96.31;101249.50;5245594;28;20122;-65
2021/06/18 04:06:22;;;;;;;8.30;5.60;;;;;;;19.75;95.13;101264.38;5253144;28;20469;-65
2021/06/18 04:08:55;;;;;;;6.88;5.30;;;;;;;19.75;96.72;101263.56;5247654;28;20017;-66
2021/06/18 04:11:27;;;;;;;7.20;5.78;;;;;;;19.72;96.24;101263.91;5251360;28;20037;-66
2021/06/18 04:13:58;;;;;;;8.80;5.67;;;;;;;19.72;97.38;101259.41;5255210;28;20248;-66
2021/06/18 04:16:30;;;;;;;9.27;5.30;;;;;;;19.68;97.05;101258.94;5247953;28;20162;-65
2021/06/18 04:19:06;;;;;;;6.73;3.73;;;;;;;19.71;95.41;101259.59;5254205;28;20032;-66
2021/06/18 04:21:44;;;;;;;5.65;2.70;;;;;;;19.64;96.51;101260.31;5251908;28;20043;-66
2021/06/18 04:24:16;;;;;;;4.57;2.85;;;;;;;19.62;97.35;101264.13;5250553;28;20025;-66
2021/06/18 04:26:47;;;;;;;8.20;3.10;;;;;;;19.59;96.38;101249.38;5252851;28;20037;-66
2021/06/18 04:29:18;;;;;;;5.50;2.90;;;;;;;19.61;96.74;101239.38;5247688;28;20057;-66
2021/06/18 04:31:50;;;;;;;9.87;2.93;;;;;;;19.66;97.23;101236.19;5249555;28;20036;-66
2021/06/18 04:34:21;;;;;;;4.97;3.40;;;;;;;19.71;98.03;101248.97;5252943;28;20033;-66
2021/06/18 04:36:52;;;;;;;6.73;2.87;;;;;;;19.67;97.20;101253.81;5249413;28;20066;-66
2021/06/18 04:39:24;;;;;;;7.00;3.60;;;;;;;19.67;97.29;101259.94;5252922;28;20033;-66
2021/06/18 04:41:55;;;;;;;5.97;3.40;;;;;;;19.66;97.99;101263.63;5251537;28;20052;-66
2021/06/18 04:44:27;;;;;;;6.67;3.40;;;;;;;19.65;96.77;101272.59;5248954;28;20029;-66
2021/06/18 04:46:58;;;;;;;8.85;3.95;;;;;;;19.85;100.00;101264.09;5252233;28;20021;-66
2021/06/18 04:49:30;;;;;;;5.30;3.43;;;;;;;19.85;99.36;101259.63;5246583;28;20310;-66
2021/06/18 04:52:02;;;;;;;6.20;3.33;;;;;;;19.82;98.87;101249.34;5251081;28;20029;-65
2021/06/18 04:54:33;;;;;;;4.83;3.53;;;;;;;19.87;99.13;101244.31;5251488;28;20044;-66
2021/06/18 04:57:05;;;;;;;6.30;3.73;;;;;;;19.84;98.73;101238.53;5247102;28;20028;-66
2021/06/18 04:59:37;;;;;;;7.20;3.57;;;;;;;19.88;99.78;101237.97;5252658;28;20182;-65
2021/06/18 05:02:08;;;;;;;8.05;3.83;;;;;;;19.86;98.62;101244.50;5247327;28;20025;-66
2021/06/18 05:04:40;;;;;;;5.53;3.77;;;;;;;19.96;100.00;101242.38;5249049;28;20040;-66
2021/06/18 05:07:11;;;;;;;6.00;3.57;;;;;;;19.91;99.38;101236.78;5252339;28;20111;-66
2021/06/18 05:09:42;;;;;;;5.03;3.60;;;;;;;19.97;99.66;101235.25;5246593;28;20079;-66
2021/06/18 05:12:14;;;;;;;3.73;3.20;;;;;;;19.98;99.16;101237.72;5251948;28;20040;-66
2021/06/18 05:14:45;;;;;;;5.37;3.57;;;;;;;20.04;99.17;101234.34;5251404;28;20108;-66
2021/06/18 05:17:17;;;;;;;4.93;3.53;;;;;;;20.00;98.82;101226.88;5254756;28;20104;-66
2021/06/18 05:19:48;;;;;;;5.67;3.77;;;;;;;20.02;98.60;101227.56;5255361;28;20029;-66
2021/06/18 05:22:19;;;;;;;9.00;4.50;;;;;;;20.03;99.58;101230.00;5254428;28;20487;-66
2021/06/18 05:24:51;;;;;;;5.90;5.00;;;;;;;20.06;99.98;101224.34;5254371;28;20039;-65
2021/06/18 05:27:22;;;;;;;5.73;4.67;;;;;;;20.11;100.00;101235.25;5254520;28;20041;-66
2021/06/18 05:29:53;;;;;;;7.43;6.53;;;;;;;20.08;99.31;101222.34;5254207;28;20035;-65
2021/06/18 05:32:25;;;;;;;8.10;6.97;;;;;;;20.05;100.00;101217.38;5254726;28;20036;-66
2021/06/18 05:34:57;;;;;;;9.93;7.70;;;;;;;20.13;100.00;101219.94;5255631;28;20024;-65
2021/06/18 05:37:28;;;;;;;11.33;10.20;;;;;;;20.02;100.00;101214.25;5245043;28;20056;-65
2021/06/18 05:39:59;;;;;;;11.70;10.53;;;;;;;20.06;99.58;101216.34;5254384;28;20505;-65
2021/06/18 05:42:31;;;;;;;12.20;10.97;;;;;;;20.14;100.00;101216.25;5254254;28;20141;-67
2021/06/18 05:45:06;;;;;;;15.47;14.07;;;;;;;20.15;100.00;101231.22;5255758;28;20021;-66
2021/06/18 05:47:38;;;;;;;14.63;13.20;;;;;;;20.25;100.00;101235.44;5252528;28;20033;-66
2021/06/18 05:50:09;;;;;;;16.87;14.97;;;;;;;20.16;100.00;101248.00;5251676;28;20050;-68
2021/06/18 05:52:41;;;;;;;19.47;17.57;;;;;;;20.20;100.00;101261.78;5255248;28;20028;-66
2021/06/18 05:55:12;;;;;;;19.23;17.47;;;;;;;20.18;100.00;101249.47;5254862;28;20111;-67
2021/06/18 05:57:43;;;;;;;19.40;17.50;;;;;;;20.21;100.00;101247.47;5253351;28;20033;-68
2021/06/18 06:00:15;;;;;;;20.90;18.90;;;;;;;20.28;100.00;101253.69;5254303;28;20051;-66
2021/06/18 06:02:47;;;;;;;22.97;20.87;;;;;;;20.29;100.00;101239.38;5249054;28;20032;-66
2021/06/18 06:05:18;;;;;;;25.10;22.77;;;;;;;20.37;100.00;101244.59;5248063;28;20284;-66
2021/06/18 06:07:49;;;;;;;28.70;26.10;;;;;;;20.32;100.00;101245.16;5250111;28;20024;-69
2021/06/18 06:10:21;;;;;;;28.53;25.93;;;;;;;20.38;100.00;101246.25;5252674;28;20063;-68
2021/06/18 06:12:52;;;;;;;30.70;27.73;;;;;;;20.36;99.57;101251.75;5252474;28;20037;-65
2021/06/18 06:15:23;;;;;;;31.93;28.90;;;;;;;20.46;100.00;101254.16;5252160;28;20028;-66
2021/06/18 06:17:55;;;;;;;33.10;30.10;;;;;;;20.53;100.00;101246.25;5249392;28;20025;-67
2021/06/18 06:20:26;;;;;;;34.07;30.57;;;;;;;20.57;99.55;101243.06;5253627;28;20094;-66
2021/06/18 06:22:57;;;;;;;34.10;30.90;;;;;;;20.48;97.44;101254.78;5233704;28;20574;-66
2021/06/18 06:25:29;;;;;;;33.70;30.67;;;;;;;20.50;97.60;101257.31;5252665;28;20028;-66
2021/06/18 06:28:00;;;;;;;34.57;31.23;;;;;;;20.59;99.13;101243.69;5252149;28;20264;-67
2021/06/18 06:30:31;;;;;;;34.57;31.17;;;;;;;20.63;98.17;101247.63;5250335;28;20101;-65
2021/06/18 06:33:04;;;;;;;32.60;29.37;;;;;;;20.73;97.91;101254.50;5240518;28;20028;-67
2021/06/18 06:35:35;;;;;;;32.40;29.52;;;;;;;20.67;97.98;101257.91;5240010;28;20025;-66
2021/06/18 06:38:07;;;;;;;31.73;28.90;;;;;;;20.78;98.40;101262.75;5252618;28;20056;-65
2021/06/18 06:40:38;;;;;;;29.27;26.53;;;;;;;20.85;98.11;101253.00;5254641;28;20106;-66
2021/06/18 06:43:09;;;;;;;32.80;29.63;;;;;;;20.88;99.36;101255.31;5253023;28;20036;-66
2021/06/18 06:45:41;;;;;;;31.83;29.03;;;;;;;20.95;98.66;101258.88;5253028;28;20059;-67
2021/06/18 06:48:12;;;;;;;29.47;26.57;;;;;;;20.85;97.01;101255.66;5246393;28;20029;-67
2021/06/18 06:50:44;;;;;;;29.33;26.73;;;;;;;20.78;96.10;101255.59;5251399;28;20123;-67
2021/06/18 06:53:15;;;;;;;28.73;26.07;;;;;;;20.86;98.41;101259.97;5245079;28;20076;-67
2021/06/18 06:55:46;;;;;;;27.93;25.30;;;;;;;20.74;97.07;101254.31;5252796;28;20114;-67
2021/06/18 06:58:17;;;;;;;29.73;27.03;;;;;;;20.73;97.95;101260.66;5249996;28;20036;-67
2021/06/18 07:00:49;;;;;;;29.60;26.93;;;;;;;20.62;96.91;101248.66;5253400;28;20033;-67
2021/06/18 07:03:20;;;;;;;30.50;27.60;;;;;;;20.67;99.01;101247.25;5251140;28;20119;-67
2021/06/18 07:05:52;;;;;;;29.93;27.07;;;;;;;20.68;98.37;101254.22;5250098;28;20125;-67
2021/06/18 07:08:25;;;;;;;31.00;28.00;;;;;;;20.70;98.28;101252.22;5252536;28;20036;-67
2021/06/18 07:10:56;;;;;;;30.90;27.90;;;;;;;20.67;99.65;101257.91;5253334;28;20040;-67
2021/06/18 07:13:28;;;;;;;31.37;28.27;;;;;;;20.71;99.51;101254.69;5252713;28;20526;-67
2021/06/18 07:16:00;;;;;;;32.57;29.57;;;;;;;20.72;99.80;101244.84;5248348;28;20052;-67
2021/06/18 07:18:33;;;;;;;32.23;29.33;;;;;;;20.77;100.00;101239.81;5249092;28;20039;-67
2021/06/18 07:21:04;;;;;;;31.48;28.60;;;;;;;20.78;99.63;101228.13;5246824;28;20045;-66
2021/06/18 07:23:36;;;;;;;32.80;29.80;;;;;;;20.87;100.00;101221.66;5246632;28;20553;-66
2021/06/18 07:26:07;;;;;;;31.97;28.97;;;;;;;20.93;100.00;101225.44;5250239;28;20659;-66
2021/06/18 07:28:39;;;;;;;31.40;28.37;;;;;;;20.92;100.00;101218.47;5249189;28;20051;-66
2021/06/18 07:31:11;;;;;;;29.57;26.77;;;;;;;20.96;100.00;101215.22;5249254;28;20087;-66
2021/06/18 07:33:43;;;;;;;28.33;25.73;;;;;;;20.93;98.29;101204.94;5237878;28;20553;-69
2021/06/18 07:36:17;;;;;;;28.17;25.57;;;;;;;20.91;100.00;101191.00;5243788;28;20021;-67
2021/06/18 07:38:48;;;;;;;26.10;23.80;;;;;;;20.86;98.43;101196.88;5247522;28;20174;-68
2021/06/18 07:41:20;;;;;;;27.13;24.73;;;;;;;20.98;99.39;101188.38;5247357;28;20036;-67
2021/06/18 07:43:51;;;;;;;26.23;23.73;;;;;;;20.92;97.28;101197.97;5243102;28;20115;-67
2021/06/18 07:46:26;;;;;;;28.60;25.87;;;;;;;20.94;98.06;101195.13;5248802;28;20387;-67
2021/06/18 07:48:58;;;;;;;28.63;25.83;;;;;;;21.01;99.94;101207.47;5244063;28;20028;-67
2021/06/18 07:51:30;;;;;;;27.20;24.60;;;;;;;21.11;98.72;101207.19;5249839;28;20024;-67
2021/06/18 07:54:01;;;;;;;29.27;26.65;;;;;;;21.40;99.13;101192.06;5249567;28;20108;-69
2021/06/18 07:56:36;;;;;;;29.13;26.33;;;;;;;21.59;99.36;101189.59;5248785;28;20466;-66
2021/06/18 07:59:08;;;;;;;29.63;27.13;;;;;;;21.59;98.85;101178.06;5243687;28;20028;-67
2021/06/18 08:01:39;;;;;;;29.23;26.67;;;;;;;21.59;97.25;101181.59;5251733;28;20580;-68
2021/06/18 08:04:10;;;;;;;29.57;26.97;;;;;;;21.67;97.58;101185.94;5248819;28;20072;-68
2021/06/18 08:06:42;;;;;;;28.90;26.30;;;;;;;21.84;96.27;101187.28;5246595;28;20053;-67
2021/06/18 08:09:13;;;;;;;32.67;29.73;;;;;;;21.99;94.52;101183.66;5245724;28;20508;-67
2021/06/18 08:11:44;;;;;;;30.53;27.20;;;;;;;22.14;94.58;101175.56;5249790;28;20119;-67
2021/06/18 08:14:16;;;;;;;28.93;26.13;;;;;;;22.17;94.91;101180.50;5245070;28;20036;-68
2021/06/18 08:16:47;;;;;;;27.50;24.97;;;;;;;22.17;93.70;101181.34;5247222;28;20040;-67
2021/06/18 08:19:18;;;;;;;28.47;25.87;;;;;;;22.41;95.30;101182.66;5248791;28;21452;-67
2021/06/18 08:21:50;;;;;;;28.10;25.13;;;;;;;22.57;94.86;101192.97;5250590;28;20052;-67
2021/06/18 08:24:21;;;;;;;27.33;25.00;;;;;;;22.80;94.64;101186.47;5249486;28;20107;-68
2021/06/18 08:26:52;;;;;;;27.37;24.67;;;;;;;22.76;92.51;101167.34;5252105;28;20024;-67
2021/06/18 08:29:23;;;;;;;26.70;24.17;;;;;;;22.93;91.88;101170.50;5253952;28;20090;-66
2021/06/18 08:31:55;;;;;;;24.27;22.03;;;;;;;22.98;89.36;101177.91;5247426;28;20624;-68
2021/06/18 08:34:26;;;;;;;23.80;21.27;;;;;;;23.09;88.88;101181.81;5245092;28;20060;-68
2021/06/18 08:36:58;;;;;;;26.00;23.43;;;;;;;23.20;88.51;101187.38;5246382;28;20040;-67
2021/06/18 08:39:29;;;;;;;24.27;22.03;;;;;;;23.42;89.98;101184.50;5253137;28;20052;-68
2021/06/18 08:42:00;;;;;;;24.77;22.30;;;;;;;23.51;89.16;101183.25;5254483;28;20036;-67
2021/06/18 08:44:32;;;;;;;23.90;21.70;;;;;;;23.59;87.94;101175.00;5252431;28;20040;-66
2021/06/18 08:47:03;;;;;;;23.57;21.37;;;;;;;23.74;90.77;101180.16;5249734;28;20139;-68
2021/06/18 08:49:35;;;;;;;21.60;19.50;;;;;;;23.80;86.84;101176.66;5250307;28;20029;-67
2021/06/18 08:52:07;;;;;;;22.13;20.10;;;;;;;23.90;86.93;101169.00;5254482;28;20107;-66
2021/06/18 08:54:43;;;;;;;21.37;19.50;;;;;;;24.07;83.91;101172.06;5252397;28;20150;-66
2021/06/18 08:57:18;;;;;;;20.02;18.10;;;;;;;24.20;84.56;101172.00;5240205;28;20398;-67
2021/06/18 08:59:50;;;;;;;21.40;18.00;;;;;;;24.36;84.80;101170.72;5251708;28;20520;-68
2021/06/18 09:02:23;;;;;;;19.73;17.88;;;;;;;24.58;85.69;101178.44;5251411;28;20033;-70
2021/06/18 09:05:07;;;;;;;19.25;17.52;;;;;;;24.68;83.73;101173.44;5248864;28;20392;-66
2021/06/18 09:08:01;;;;;;;18.23;16.33;;;;;;;24.81;82.88;101167.16;5251712;28;20072;-68
2021/06/18 09:10:37;;;;;;;18.95;17.15;;;;;;;24.70;79.68;101174.88;5250869;28;20039;-68
2021/06/18 09:13:13;;;;;;;18.98;16.98;;;;;;;24.82;79.73;101176.88;5238778;28;20085;-67
2021/06/18 09:15:50;;;;;;;19.10;17.20;;;;;;;24.80;81.03;101174.41;5252025;28;20036;-66
2021/06/18 09:18:28;;;;;;;19.45;17.13;;;;;;;24.90;79.56;101177.44;5254113;28;20040;-70
2021/06/18 09:21:02;;;;;;;16.85;15.38;;;;;;;25.17;81.78;101172.72;5254541;28;20043;-69
2021/06/18 09:23:49;;;;;;;17.20;15.50;;;;;;;25.36;78.30;101175.47;5248589;28;20071;-68
2021/06/18 09:26:34;;;;;;;16.35;14.80;;;;;;;25.44;77.80;101167.13;5254940;28;20363;-66
2021/06/18 09:29:12;;;;;;;16.42;14.82;;;;;;;25.55;78.24;101168.25;5253543;28;20029;-67
2021/06/18 09:31:59;;;;;;;15.05;13.80;;;;;;;25.76;76.87;101170.53;5243119;28;20044;-68
2021/06/18 09:35:02;;;;;;;15.48;13.68;;;;;;;25.89;76.77;101169.59;5234898;28;20580;-69
2021/06/18 09:37:39;;;;;;;16.33;14.45;;;;;;;25.80;73.97;101162.88;5248822;28;20069;-69
2021/06/18 09:40:16;;;;;;;14.60;13.15;;;;;;;25.94;75.51;101151.75;5253341;28;20044;-67
2021/06/18 09:42:52;;;;;;;14.25;12.88;;;;;;;26.10;75.02;101149.50;5251967;28;20106;-68
2021/06/18 09:45:32;;;;;;;17.33;12.90;;;;;;;26.41;73.12;101143.94;5253541;28;20393;-68
2021/06/18 09:48:13;;;;;;;14.43;12.93;;;;;;;26.55;73.73;101146.47;5254216;28;20037;-67
2021/06/18 09:50:47;;;;;;;15.05;13.52;;;;;;;26.48;71.50;101146.59;5252042;28;20035;-67
2021/06/18 09:53:21;;;;;;;13.23;12.00;;;;;;;26.73;72.57;101143.72;5247739;28;20029;-69
2021/06/18 09:56:11;;;;;;;14.35;12.73;;;;;;;26.98;72.23;101145.41;5250874;28;20021;-69
2021/06/18 09:58:46;;;;;;;13.00;11.68;;;;;;;26.98;68.74;101137.34;5250935;28;20040;-68
2021/06/18 10:01:25;;;;;;;13.85;11.82;;;;;;;27.18;69.06;101140.56;5251428;28;20221;-68
2021/06/18 10:03:56;;;;;;;12.85;11.52;;;;;;;27.18;66.69;101140.56;5244508;28;20461;-68
2021/06/18 10:06:33;;;;;;;14.57;11.20;;;;;;;27.21;65.87;101134.72;5251550;28;20028;-67
2021/06/18 10:09:07;;;;;;;12.75;11.10;;;;;;;27.21;65.17;101128.53;5251661;28;20317;-67
2021/06/18 10:11:42;;;;;;;15.40;10.77;;;;;;;27.59;67.63;101126.16;5248698;28;20090;-67
2021/06/18 10:14:15;;;;;;;15.65;12.32;;;;;;;27.48;67.29;101128.84;5250120;28;20025;-67
2021/06/18 10:16:46;;;;;;;;;;;;;;;27.87;62.94;101132.69;5250449;28;20107;-69
2021/06/18 10:19:17;;;;;;;14.83;10.80;;;;;;;27.76;62.33;101118.19;5250468;28;19916;-69
2021/06/18 10:21:59;;;;;;;10.60;8.90;;;;;;;28.11;62.90;101128.06;5250236;28;20461;-67
2021/06/18 10:24:38;;;;;;;12.57;10.17;;;;;;;28.13;62.07;101126.75;5249424;28;20307;-69
2021/06/18 10:27:10;;;;;;;12.68;9.95;;;;;;;28.04;61.96;101108.53;5250744;28;20377;-67
2021/06/18 10:29:42;;;;;;;12.32;10.15;;;;;;;28.14;64.17;101101.44;5251265;28;20021;-67
2021/06/18 10:32:29;;;;;;;13.50;10.90;;;;;;;28.38;62.71;101100.56;5252257;28;20467;-67
2021/06/18 10:35:05;;;;;;;13.13;9.27;;;;;;;28.48;62.18;101096.16;5245014;28;20360;-67
2021/06/18 10:37:46;;;;;;;13.57;9.50;;;;;;;28.67;63.05;101099.44;5252281;28;20483;-67
2021/06/18 10:40:18;;;;;;;10.60;9.50;;;;;;;28.74;61.37;101094.69;5251414;28;20024;-68
2021/06/18 10:43:33;;;;;;;11.15;10.00;;;;;;;29.00;61.32;101092.44;5251645;28;20426;-68
2021/06/18 10:46:07;;;;;;;13.38;10.55;;;;;;;28.91;60.48;101094.72;5229052;28;20336;-69
2021/06/18 10:48:44;;;;;;;12.32;10.00;;;;;;;28.93;57.85;101099.84;5251356;28;20496;-68
2021/06/18 10:51:27;;;;;;;14.05;9.40;;;;;;;28.97;60.63;101096.41;5252997;28;20056;-67
2021/06/18 10:54:04;;;;;;;11.70;9.13;;;;;;;28.94;58.46;101079.91;5250488;28;20479;-68
2021/06/18 10:56:44;;;;;;;10.40;7.68;;;;;;;29.10;59.07;101087.22;5250612;28;20027;-69
2021/06/18 10:59:37;;;;;;;11.05;8.27;;;;;;;29.24;57.17;101090.34;5251545;28;20111;-68
2021/06/18 11:02:20;;;;;;;12.27;8.38;;;;;;;29.36;57.84;101095.66;5253337;28;20016;-67
2021/06/18 11:04:56;;;;;;;9.80;7.07;;;;;;;29.57;57.90;101087.59;5251289;28;20049;-68
2021/06/18 11:07:33;;;;;;;12.98;8.00;;;;;;;29.69;57.35;101082.06;5249069;28;20032;-67
2021/06/18 11:10:15;;;;;;;13.75;8.35;;;;;;;29.78;57.31;101083.28;5251438;28;20493;-68
2021/06/18 11:13:00;;;;;;;11.45;8.27;;;;;;;29.87;56.64;101077.44;5252059;28;20406;-68
2021/06/18 11:15:32;;;;;;;12.45;7.13;;;;;;;30.15;55.80;101076.38;5253966;28;20124;-68
2021/06/18 11:18:15;;;;;;;9.17;5.30;;;;;;;30.31;51.89;101080.91;5253609;28;20107;-67
2021/06/18 11:20:50;;;;;;;10.40;4.78;;;;;;;30.41;52.06;101070.16;5250893;28;20053;-67
2021/06/18 11:23:25;;;;;;;10.30;5.43;;;;;;;30.32;51.70;101070.91;5244824;28;20159;-70
2021/06/18 11:26:02;;;;;;;11.40;5.55;;;;;;;30.71;52.06;101076.91;5252273;28;20025;-67
2021/06/18 11:28:37;;;;;;;6.25;4.60;;;;;;;30.64;48.24;101079.81;5247093;28;20402;-68
2021/06/18 11:31:13;;;;;;;8.05;4.95;;;;;;;30.89;50.36;101068.41;5252441;28;20079;-68
2021/06/18 11:34:04;;;;;;;11.35;5.32;;;;;;;30.82;48.93;101064.31;5249496;28;20470;-68
2021/06/18 11:36:35;;;;;;;8.35;5.03;;;;;;;30.83;49.34;101068.63;5245493;28;20056;-67
2021/06/18 11:39:07;;;;;;;10.30;4.80;;;;;;;30.92;46.67;101067.91;5252841;28;20057;-68
2021/06/18 11:41:41;;;;;;;6.43;4.50;;;;;;;30.68;48.08;101064.69;5251678;28;20025;-68
2021/06/18 11:44:16;;;;;;;10.48;4.47;;;;;;;30.86;47.85;101057.28;5245614;28;20029;-68
2021/06/18 11:46:52;;;;;;;12.48;5.05;;;;;;;30.73;46.27;101056.66;5251210;28;20063;-67
2021/06/18 11:49:25;;;;;;;6.13;4.60;;;;;;;30.76;48.18;101053.47;5247229;28;20041;-68